createdAt,value
2022-12-08T00:01:26.972Z,8.15
2022-12-08T00:06:43.864Z,6.65
2022-12-08T00:09:32.048Z,7.00
2022-12-08T00:12:04.750Z,7.85
2022-12-08T00:17:03.356Z,7.00
2022-12-08T00:19:30.865Z,6.53
2022-12-08T00:21:58.166Z,6.97
2022-12-08T00:24:29.984Z,7.32
2022-12-08T00:26:56.908Z,6.13
2022-12-08T00:29:23.704Z,7.03
2022-12-08T00:31:51.085Z,6.88
2022-12-08T00:34:18.104Z,6.88
2022-12-08T00:36:45.778Z,5.93
2022-12-08T00:39:15.073Z,6.15
2022-12-08T00:42:00.858Z,6.65
2022-12-08T00:44:28.022Z,5.40
2022-12-08T00:46:57.868Z,5.70
2022-12-08T00:51:52.033Z,5.45
2022-12-08T00:54:19.032Z,6.82
2022-12-08T00:56:47.727Z,5.70
2022-12-08T00:59:15.098Z,5.35
2022-12-08T01:01:45.397Z,5.80
2022-12-08T01:04:20.789Z,6.10
2022-12-08T01:06:48.172Z,5.57
2022-12-08T01:09:17.068Z,5.13
2022-12-08T01:11:47.114Z,5.63
2022-12-08T01:14:14.600Z,4.75
2022-12-08T01:16:42.489Z,5.18
2022-12-08T01:19:12.409Z,5.03
2022-12-08T01:24:14.756Z,5.25
2022-12-08T01:26:44.878Z,4.75
2022-12-08T01:29:12.566Z,4.18
2022-12-08T01:31:40.412Z,5.18
2022-12-08T01:34:08.374Z,4.68
2022-12-08T01:36:39.242Z,4.38
2022-12-08T01:39:10.663Z,5.10
2022-12-08T01:41:38.800Z,4.68
2022-12-08T01:44:08.990Z,4.38
2022-12-08T01:46:38.641Z,5.45
2022-12-08T01:49:06.920Z,4.47
2022-12-08T01:51:41.272Z,4.20
2022-12-08T01:54:08.548Z,4.53
2022-12-08T01:56:46.456Z,4.82
2022-12-08T01:59:13.356Z,3.58
2022-12-08T02:01:40.143Z,4.50
2022-12-08T02:04:06.804Z,4.68
2022-12-08T02:06:38.574Z,4.70
2022-12-08T02:09:05.949Z,4.63
2022-12-08T02:11:32.611Z,4.20
2022-12-08T02:14:00.819Z,4.20
2022-12-08T02:17:04.882Z,4.22
2022-12-08T02:20:04.429Z,3.70
2022-12-08T02:22:42.839Z,3.75
2022-12-08T02:25:19.819Z,3.58
2022-12-08T02:28:10.296Z,3.95
2022-12-08T02:31:08.077Z,3.53
2022-12-08T02:33:59.159Z,3.45
2022-12-08T02:36:37.067Z,3.60
2022-12-08T02:39:22.581Z,3.28
2022-12-08T02:42:06.082Z,3.42
2022-12-08T02:44:56.032Z,3.60
2022-12-08T02:49:51.146Z,3.25
2022-12-08T02:52:17.715Z,3.65
2022-12-08T02:54:51.380Z,3.50
2022-12-08T02:57:32.183Z,2.70
2022-12-08T03:00:07.919Z,3.55
2022-12-08T03:02:40.276Z,4.25
2022-12-08T03:05:22.733Z,3.80
2022-12-08T03:08:22.220Z,3.50
2022-12-08T03:11:08.359Z,3.95
2022-12-08T03:13:41.255Z,2.88
2022-12-08T03:16:11.206Z,3.03
2022-12-08T03:18:43.055Z,4.55
2022-12-08T03:21:12.086Z,2.50
2022-12-08T03:23:41.523Z,2.72
2022-12-08T03:26:18.352Z,3.00
2022-12-08T03:28:45.096Z,2.58
2022-12-08T03:31:14.898Z,3.05
2022-12-08T03:36:12.224Z,3.05
2022-12-08T03:38:49.768Z,2.63
2022-12-08T03:41:19.298Z,2.42
2022-12-08T03:43:47.261Z,3.35
2022-12-08T03:46:15.462Z,2.40
2022-12-08T03:48:42.802Z,3.35
2022-12-08T03:51:09.540Z,3.25
2022-12-08T03:53:36.233Z,2.72
2022-12-08T03:56:14.476Z,2.75
2022-12-08T03:58:44.395Z,3.13
2022-12-08T04:03:38.097Z,2.90
2022-12-08T04:06:05.229Z,2.85
2022-12-08T04:08:31.850Z,3.20
2022-12-08T04:10:58.413Z,3.22
2022-12-08T04:13:25.043Z,2.75
2022-12-08T04:15:51.683Z,2.55
2022-12-08T04:18:18.328Z,2.88
2022-12-08T04:20:45.719Z,2.42
2022-12-08T04:23:12.979Z,2.75
2022-12-08T04:25:39.761Z,3.47
2022-12-08T04:28:06.835Z,3.25
2022-12-08T04:30:33.820Z,2.70
2022-12-08T04:33:00.428Z,3.20
2022-12-08T04:35:27.293Z,2.58
2022-12-08T04:37:54.147Z,3.00
2022-12-08T04:40:20.721Z,3.45
2022-12-08T04:42:47.567Z,3.60
2022-12-08T04:45:14.250Z,2.78
2022-12-08T04:47:41.167Z,2.78
2022-12-08T04:50:08.529Z,2.72
2022-12-08T04:52:35.273Z,2.90
2022-12-08T04:55:05.431Z,3.85
2022-12-08T04:57:32.009Z,3.33
2022-12-08T04:59:58.553Z,3.67
2022-12-08T05:02:25.166Z,4.25
2022-12-08T05:04:51.762Z,3.83
2022-12-08T05:07:18.295Z,4.80
2022-12-08T05:09:44.975Z,4.68
2022-12-08T05:12:11.575Z,5.10
2022-12-08T05:14:38.277Z,4.35
2022-12-08T05:17:09.286Z,5.10
2022-12-08T05:19:36.468Z,5.20
2022-12-08T05:22:03.199Z,6.80
2022-12-08T05:24:29.831Z,5.93
2022-12-08T05:26:56.416Z,5.82
2022-12-08T05:29:23.106Z,6.50
2022-12-08T05:31:49.919Z,5.63
2022-12-08T05:34:16.590Z,5.32
2022-12-08T05:36:43.195Z,6.18
2022-12-08T05:39:13.428Z,6.32
2022-12-08T05:41:40.369Z,7.63
2022-12-08T05:44:07.477Z,5.55
2022-12-08T05:46:34.514Z,6.50
2022-12-08T05:49:02.055Z,6.03
2022-12-08T05:51:28.791Z,6.32
2022-12-08T05:53:55.976Z,6.40
2022-12-08T05:56:23.191Z,6.15
2022-12-08T05:58:50.334Z,7.10
2022-12-08T06:01:25.557Z,6.70
2022-12-08T06:03:52.859Z,7.78
2022-12-08T06:06:20.217Z,7.75
2022-12-08T06:08:46.950Z,6.78
2022-12-08T06:11:21.790Z,6.68
2022-12-08T06:13:48.963Z,7.00
2022-12-08T06:16:16.111Z,6.03
2022-12-08T06:18:59.831Z,6.60
2022-12-08T06:21:26.515Z,8.85
2022-12-08T06:23:57.511Z,8.07
2022-12-08T06:26:24.236Z,8.00
2022-12-08T06:28:50.935Z,7.32
2022-12-08T06:31:26.370Z,7.57
2022-12-08T06:33:54.880Z,6.97
2022-12-08T06:36:24.715Z,8.25
2022-12-08T06:38:54.393Z,7.10
2022-12-08T06:41:20.987Z,8.30
2022-12-08T06:43:47.961Z,7.13
2022-12-08T06:46:18.458Z,7.78
2022-12-08T06:48:45.433Z,8.82
2022-12-08T06:51:14.687Z,7.50
2022-12-08T06:53:42.577Z,7.88
2022-12-08T06:56:10.173Z,7.10
2022-12-08T06:58:37.007Z,7.88
2022-12-08T07:01:13.881Z,7.38
2022-12-08T07:03:41.526Z,6.47
2022-12-08T07:06:08.189Z,7.03
2022-12-08T07:08:35.292Z,7.68
2022-12-08T07:11:09.828Z,7.25
2022-12-08T07:13:36.803Z,7.05
2022-12-08T07:16:11.190Z,7.40
2022-12-08T07:18:38.539Z,5.57
2022-12-08T07:21:10.924Z,7.30
2022-12-08T07:23:37.859Z,6.85
2022-12-08T07:26:10.428Z,6.80
2022-12-08T07:28:38.835Z,6.57
2022-12-08T07:31:06.146Z,5.90
2022-12-08T07:33:34.128Z,5.25
2022-12-08T07:36:04.553Z,8.80
2022-12-08T07:38:31.474Z,6.55
2022-12-08T07:40:58.155Z,5.30
2022-12-08T07:43:24.796Z,5.93
2022-12-08T07:45:51.652Z,4.60
2022-12-08T07:48:18.991Z,4.95
2022-12-08T07:50:46.005Z,5.15
2022-12-08T07:53:13.266Z,5.07
2022-12-08T07:55:44.105Z,5.07
2022-12-08T07:58:11.466Z,6.20
2022-12-08T08:00:38.237Z,5.95
2022-12-08T08:03:04.992Z,4.78
2022-12-08T08:05:31.703Z,4.32
2022-12-08T08:07:58.336Z,4.75
2022-12-08T08:10:25.080Z,5.25
2022-12-08T08:12:51.698Z,4.47
2022-12-08T08:15:20.356Z,4.43
2022-12-08T08:17:51.011Z,4.45
2022-12-08T08:20:18.692Z,5.28
2022-12-08T08:22:50.783Z,4.35
2022-12-08T08:25:19.024Z,4.25
2022-12-08T08:27:46.728Z,5.38
2022-12-08T08:30:19.997Z,5.07
2022-12-08T08:32:47.731Z,5.18
2022-12-08T08:35:14.656Z,6.70
2022-12-08T08:37:45.769Z,5.53
2022-12-08T08:40:15.561Z,5.93
2022-12-08T08:42:42.136Z,6.18
2022-12-08T08:45:09.066Z,5.05
2022-12-08T08:47:35.720Z,4.57
2022-12-08T08:50:03.054Z,5.30
2022-12-08T08:52:30.040Z,4.55
2022-12-08T08:54:56.686Z,4.97
2022-12-08T08:57:25.835Z,7.03
2022-12-08T08:59:53.586Z,5.50
2022-12-08T09:02:21.049Z,5.45
2022-12-08T09:04:48.123Z,6.97
2022-12-08T09:07:15.609Z,4.60
2022-12-08T09:09:42.180Z,6.57
2022-12-08T09:12:09.706Z,4.82
2022-12-08T09:14:36.578Z,5.03
2022-12-08T09:17:03.271Z,5.25
2022-12-08T09:19:29.890Z,4.95
2022-12-08T09:21:56.423Z,5.40
2022-12-08T09:24:23.192Z,4.97
2022-12-08T09:26:49.904Z,5.47
2022-12-08T09:29:17.626Z,5.68
2022-12-08T09:31:44.456Z,6.05
2022-12-08T09:34:12.265Z,6.68
2022-12-08T09:36:39.503Z,4.22
2022-12-08T09:39:06.572Z,4.57
2022-12-08T09:41:41.786Z,4.22
2022-12-08T09:44:23.771Z,4.47
2022-12-08T09:46:53.035Z,5.45
2022-12-08T09:49:33.766Z,5.45
2022-12-08T09:52:01.012Z,5.03
2022-12-08T09:54:36.923Z,6.00
2022-12-08T09:57:13.655Z,5.65
2022-12-08T09:59:42.787Z,5.35
2022-12-08T10:02:22.725Z,4.50
2022-12-08T10:07:37.121Z,4.32
2022-12-08T10:10:22.413Z,4.72
2022-12-08T10:13:27.689Z,5.78
2022-12-08T10:16:44.372Z,4.93
2022-12-08T10:19:17.937Z,4.40
2022-12-08T10:21:45.488Z,4.13
2022-12-08T10:24:32.142Z,4.63
2022-12-08T10:26:59.670Z,3.65
2022-12-08T10:29:26.247Z,3.78
2022-12-08T10:31:52.915Z,2.95
2022-12-08T10:34:24.036Z,3.83
2022-12-08T10:36:58.895Z,3.17
2022-12-08T10:39:38.835Z,4.00
2022-12-08T10:45:02.581Z,4.25
2022-12-08T10:47:30.385Z,4.97
2022-12-08T10:50:31.903Z,2.97
2022-12-08T10:53:12.348Z,4.05
2022-12-08T10:55:53.000Z,3.47
2022-12-08T10:58:32.932Z,3.92
2022-12-08T11:03:36.242Z,3.65
2022-12-08T11:06:14.826Z,3.63
2022-12-08T11:09:21.945Z,3.47
2022-12-08T11:11:58.199Z,3.95
2022-12-08T11:14:32.276Z,3.97
2022-12-08T11:17:15.641Z,4.80
2022-12-08T11:22:33.715Z,3.60
2022-12-08T11:25:24.411Z,3.92
2022-12-08T11:27:56.265Z,4.03
2022-12-08T11:30:34.396Z,4.28
2022-12-08T11:33:16.355Z,4.25
2022-12-08T11:35:46.796Z,4.55
2022-12-08T11:38:22.687Z,3.60
2022-12-08T11:41:08.464Z,3.47
2022-12-08T11:44:16.467Z,4.50
2022-12-08T11:46:46.332Z,3.67
2022-12-08T11:51:47.583Z,3.20
2022-12-08T11:54:17.241Z,3.97
2022-12-08T11:56:56.547Z,3.85
2022-12-08T11:59:34.693Z,4.13
2022-12-08T12:02:02.923Z,4.10
2022-12-08T12:04:33.411Z,3.42
2022-12-08T12:07:34.023Z,2.67
2022-12-08T12:10:29.992Z,3.08
2022-12-08T12:13:08.091Z,2.80
2022-12-08T12:15:53.721Z,2.25
2022-12-08T12:18:41.097Z,3.38
2022-12-08T12:21:26.506Z,3.63
2022-12-08T12:24:22.233Z,2.95
2022-12-08T12:27:00.661Z,2.40
2022-12-08T12:29:32.726Z,2.78
2022-12-08T12:32:04.488Z,3.33
2022-12-08T12:34:35.114Z,2.75
2022-12-08T12:37:07.340Z,2.95
2022-12-08T12:39:45.922Z,3.28
2022-12-08T12:42:35.664Z,3.45
2022-12-08T12:45:16.121Z,2.50
2022-12-08T12:48:13.202Z,2.50
2022-12-08T12:50:44.087Z,2.88
2022-12-08T12:53:16.811Z,2.80
2022-12-08T12:55:46.245Z,2.80
2022-12-08T12:58:29.680Z,2.88
2022-12-08T13:01:11.930Z,3.33
2022-12-08T13:03:45.526Z,3.05
2022-12-08T13:06:14.753Z,3.00
2022-12-08T13:08:51.962Z,2.72
2022-12-08T13:11:18.973Z,2.72
2022-12-08T13:14:05.869Z,2.47
2022-12-08T13:16:34.913Z,2.45
2022-12-08T13:19:05.683Z,2.53
2022-12-08T13:21:35.913Z,1.63
2022-12-08T13:24:17.596Z,2.47
2022-12-08T13:27:03.840Z,1.42
2022-12-08T13:29:35.318Z,1.70
2022-12-08T13:33:16.745Z,1.42
2022-12-08T13:35:30.646Z,1.75
2022-12-08T13:38:00.052Z,1.33
2022-12-08T13:40:30.101Z,1.40
2022-12-08T13:43:15.290Z,1.58
2022-12-08T13:50:05.833Z,1.80
2022-12-08T13:55:13.663Z,1.75
2022-12-08T13:57:23.753Z,1.88
2022-12-08T13:59:50.353Z,1.80
2022-12-08T14:02:22.941Z,2.85
2022-12-08T14:07:38.554Z,2.03
2022-12-08T14:10:10.428Z,1.97
2022-12-08T14:12:37.547Z,2.25
2022-12-08T14:15:06.574Z,2.15
2022-12-08T14:17:34.207Z,2.40
2022-12-08T14:20:19.713Z,2.05
2022-12-08T14:22:46.806Z,2.15
2022-12-08T14:25:15.465Z,2.03
2022-12-08T14:27:42.395Z,2.88
2022-12-08T14:30:24.629Z,2.13
2022-12-08T14:32:54.918Z,1.67
2022-12-08T14:35:29.180Z,2.10
2022-12-08T14:37:58.806Z,2.30
2022-12-08T14:40:35.828Z,2.20
2022-12-08T14:43:18.034Z,1.75
2022-12-08T14:45:44.733Z,2.10
2022-12-08T14:48:38.410Z,2.10
2022-12-08T14:51:05.064Z,2.58
2022-12-08T14:53:31.622Z,2.05
2022-12-08T14:55:58.293Z,2.47
2022-12-08T14:58:31.193Z,2.08
2022-12-08T15:00:59.700Z,1.95
2022-12-08T15:03:29.864Z,2.22
2022-12-08T15:05:59.641Z,2.10
2022-12-08T15:08:26.490Z,1.83
2022-12-08T15:11:18.211Z,2.20
2022-12-08T15:13:48.942Z,2.10
2022-12-08T15:16:42.785Z,2.67
2022-12-08T15:19:29.486Z,2.22
2022-12-08T15:21:58.921Z,2.72
2022-12-08T15:24:29.910Z,3.25
2022-12-08T15:26:57.010Z,2.10
2022-12-08T15:29:29.809Z,2.10
2022-12-08T15:31:59.952Z,1.95
2022-12-08T15:34:26.744Z,1.95
2022-12-08T15:36:55.950Z,1.98
2022-12-08T15:39:36.699Z,2.00
2022-12-08T15:42:06.081Z,1.88
2022-12-08T15:44:32.928Z,1.85
2022-12-08T15:47:06.802Z,1.67
2022-12-08T15:49:33.398Z,1.85
2022-12-08T15:52:10.812Z,1.70
2022-12-08T15:54:38.150Z,1.50
2022-12-08T15:57:19.571Z,1.70
2022-12-08T15:59:52.511Z,1.70
2022-12-08T16:02:22.832Z,1.48
2022-12-08T16:07:38.279Z,1.80
2022-12-08T16:10:06.781Z,1.60
2022-12-08T16:15:59.378Z,1.23
2022-12-08T16:18:30.116Z,1.70
2022-12-08T16:23:45.322Z,1.50
2022-12-08T16:26:44.352Z,1.70
2022-12-08T16:29:05.964Z,1.80
2022-12-08T16:31:33.116Z,1.48
2022-12-08T16:33:59.894Z,1.55
2022-12-08T16:36:26.446Z,1.55
2022-12-08T16:38:53.076Z,1.35
2022-12-08T16:41:38.163Z,1.42
2022-12-08T16:44:06.227Z,1.55
2022-12-08T16:46:33.540Z,1.60
2022-12-08T16:49:00.219Z,1.65
2022-12-08T16:51:27.647Z,1.73
2022-12-08T16:53:55.513Z,1.77
2022-12-08T16:56:26.248Z,1.88
2022-12-08T16:58:57.279Z,1.40
2022-12-08T17:01:24.960Z,2.60
2022-12-08T17:04:22.446Z,1.75
2022-12-08T17:06:38.451Z,1.52
2022-12-08T17:09:05.640Z,1.70
2022-12-08T17:11:36.197Z,1.40
2022-12-08T17:14:09.114Z,1.70
2022-12-08T17:16:35.912Z,1.25
2022-12-08T17:19:02.641Z,1.52
2022-12-08T17:21:29.508Z,1.70
2022-12-08T17:23:56.260Z,1.85
2022-12-08T17:26:22.847Z,2.00
2022-12-08T17:29:00.469Z,2.15
2022-12-08T17:31:29.920Z,2.08
2022-12-08T17:34:05.200Z,2.67
2022-12-08T17:36:31.966Z,2.55
2022-12-08T17:39:00.242Z,2.22
2022-12-08T17:41:27.391Z,1.85
2022-12-08T17:43:54.061Z,2.67
2022-12-08T17:46:21.577Z,2.50
2022-12-08T17:48:48.222Z,1.70
2022-12-08T17:51:15.216Z,1.90
2022-12-08T17:53:41.928Z,2.63
2022-12-08T17:56:20.924Z,2.85
2022-12-08T17:58:53.972Z,3.17
2022-12-08T18:01:21.465Z,3.42
2022-12-08T18:03:48.138Z,3.17
2022-12-08T18:06:14.779Z,4.13
2022-12-08T18:08:41.350Z,3.08
2022-12-08T18:11:14.590Z,3.30
2022-12-08T18:13:41.261Z,3.60
2022-12-08T18:16:07.954Z,2.95
2022-12-08T18:18:34.625Z,2.88
2022-12-08T18:21:02.413Z,2.58
2022-12-08T18:23:29.208Z,3.03
2022-12-08T18:25:55.835Z,2.53
2022-12-08T18:28:23.675Z,2.95
2022-12-08T18:30:50.594Z,4.30
2022-12-08T18:33:17.417Z,3.60
2022-12-08T18:35:44.046Z,2.95
2022-12-08T18:38:10.656Z,3.50
2022-12-08T18:40:37.323Z,3.60
2022-12-08T18:43:03.962Z,3.17
2022-12-08T18:45:30.543Z,4.85
2022-12-08T18:47:57.139Z,3.17
2022-12-08T18:50:23.737Z,4.07
2022-12-08T18:52:51.347Z,3.30
2022-12-08T18:55:18.039Z,3.58
2022-12-08T18:57:44.793Z,3.78
2022-12-08T19:00:14.932Z,3.67
2022-12-08T19:02:42.099Z,3.80
2022-12-08T19:05:14.389Z,3.95
2022-12-08T19:07:42.622Z,4.00
2022-12-08T19:10:10.270Z,4.07
2022-12-08T19:12:37.020Z,3.97
2022-12-08T19:15:04.290Z,4.85
2022-12-08T19:17:31.173Z,4.47
2022-12-08T19:19:57.779Z,3.65
2022-12-08T19:22:24.413Z,4.22
2022-12-08T19:24:51.034Z,4.70
2022-12-08T19:27:18.541Z,4.13
2022-12-08T19:29:45.186Z,5.10
2022-12-08T19:32:12.409Z,4.18
2022-12-08T19:34:38.976Z,4.57
2022-12-08T19:37:06.694Z,4.10
2022-12-08T19:39:51.816Z,3.50
2022-12-08T19:42:38.694Z,4.68
2022-12-08T19:45:12.157Z,4.47
2022-12-08T19:47:39.884Z,4.43
2022-12-08T19:50:27.488Z,3.28
2022-12-08T19:52:54.801Z,3.97
2022-12-08T19:55:23.467Z,3.75
2022-12-08T19:57:51.093Z,3.60
2022-12-08T20:00:19.221Z,3.97
2022-12-08T20:02:46.552Z,4.35
2022-12-08T20:05:13.588Z,3.38
2022-12-08T20:07:40.625Z,3.85
2022-12-08T20:10:15.023Z,3.63
2022-12-08T20:12:41.750Z,4.85
2022-12-08T20:15:10.111Z,4.13
2022-12-08T20:17:40.281Z,5.00
2022-12-08T20:20:08.671Z,5.00
2022-12-08T20:22:35.728Z,3.47
2022-12-08T20:25:02.724Z,4.40
2022-12-08T20:27:29.581Z,4.00
2022-12-08T20:29:56.201Z,4.95
2022-12-08T20:32:22.965Z,5.38
2022-12-08T20:34:49.621Z,4.68
2022-12-08T20:37:16.271Z,7.05
2022-12-08T20:39:42.905Z,5.50
2022-12-08T20:42:13.564Z,6.28
2022-12-08T20:44:44.247Z,5.25
2022-12-08T20:47:12.146Z,5.70
2022-12-08T20:49:38.948Z,5.00
2022-12-08T20:52:05.861Z,4.30
2022-12-08T20:54:32.524Z,3.58
2022-12-08T20:56:59.307Z,5.30
2022-12-08T20:59:26.672Z,4.00
2022-12-08T21:01:54.016Z,4.03
2022-12-08T21:04:21.957Z,4.93
2022-12-08T21:06:49.433Z,5.30
2022-12-08T21:09:16.194Z,3.72
2022-12-08T21:11:43.061Z,4.28
2022-12-08T21:14:09.674Z,4.22
2022-12-08T21:16:37.993Z,3.67
2022-12-08T21:19:05.818Z,4.95
2022-12-08T21:21:32.705Z,3.75
2022-12-08T21:23:59.708Z,3.72
2022-12-08T21:26:26.650Z,3.75
2022-12-08T21:28:58.178Z,3.55
2022-12-08T21:31:29.384Z,3.67
2022-12-08T21:33:56.121Z,5.30
2022-12-08T21:36:23.281Z,4.95
2022-12-08T21:38:50.939Z,4.28
2022-12-08T21:41:40.962Z,4.53
2022-12-08T21:44:10.328Z,4.45
2022-12-08T21:46:37.209Z,4.28
2022-12-08T21:49:04.442Z,5.10
2022-12-08T21:51:32.831Z,4.97
2022-12-08T21:53:59.427Z,5.10
2022-12-08T21:56:26.396Z,4.50
2022-12-08T21:58:54.071Z,5.70
2022-12-08T22:01:20.985Z,4.70
2022-12-08T22:03:47.952Z,4.80
2022-12-08T22:06:14.890Z,5.10
2022-12-08T22:08:42.020Z,4.80
2022-12-08T22:11:10.352Z,4.35
2022-12-08T22:13:39.159Z,5.50
2022-12-08T22:16:09.424Z,5.32
2022-12-08T22:18:37.129Z,5.63
2022-12-08T22:21:11.643Z,5.25
2022-12-08T22:23:38.529Z,5.00
2022-12-08T22:26:06.237Z,4.75
2022-12-08T22:28:35.806Z,4.32
2022-12-08T22:31:08.841Z,4.72
2022-12-08T22:33:35.424Z,3.67
2022-12-08T22:36:10.150Z,3.80
2022-12-08T22:38:37.877Z,3.30
2022-12-08T22:41:05.649Z,3.72
2022-12-08T22:43:32.909Z,3.80
2022-12-08T22:45:59.925Z,3.78
2022-12-08T22:48:26.539Z,3.88
2022-12-08T22:51:00.855Z,3.75
2022-12-08T22:53:27.530Z,3.70
2022-12-08T22:55:54.666Z,3.85
2022-12-08T22:58:21.826Z,4.00
2022-12-08T23:00:48.529Z,3.70
2022-12-08T23:03:15.408Z,4.43
2022-12-08T23:05:42.483Z,3.90
2022-12-08T23:08:13.050Z,3.88
2022-12-08T23:10:40.157Z,4.43
2022-12-08T23:13:06.722Z,4.03
2022-12-08T23:15:33.556Z,4.97
2022-12-08T23:18:00.347Z,4.18
2022-12-08T23:20:27.203Z,4.82
2022-12-08T23:22:53.933Z,5.45
2022-12-08T23:25:20.639Z,5.20
2022-12-08T23:27:47.729Z,5.15
2022-12-08T23:30:15.248Z,5.97
2022-12-08T23:32:41.944Z,6.35
2022-12-08T23:35:09.628Z,6.50
2022-12-08T23:37:36.559Z,6.50
2022-12-08T23:40:04.769Z,5.53
2022-12-08T23:42:31.871Z,6.03
2022-12-08T23:44:58.459Z,6.55
2022-12-08T23:47:25.417Z,5.65
2022-12-08T23:49:52.076Z,7.00
2022-12-08T23:52:18.678Z,6.53
2022-12-08T23:54:45.264Z,6.45
2022-12-08T23:57:11.852Z,6.35
2022-12-08T23:59:38.704Z,6.13
